Sevier River / Vermillion Canal




Date Battery Voltage (V) Canal Stage above Flume (ft) Canal Stage below Flume (ft) Canal Flow (cfs) Canal Gate Height (%) River Stage at Dam (ft) River Flow at Dam (cfs) Pond Stage at Gate (ft)
02/01/2017 12.99 -0.02 -0.70 0.0 0.07 11 2.30
02/02/2017 12.98 -0.03 -0.71 0.0 0.05 8 2.38
02/03/2017 13.00 -0.03 -0.70 0.0 0.30 24 2.39
02/04/2017 13.01 -0.03 -0.69 0.0 0.40 32 2.40
02/05/2017 13.03 -0.03 -0.66 0.0 0.32 24 2.41
02/06/2017 13.01 -0.03 -0.62 0.0 0.20 16 2.42
02/07/2017 13.03 -0.03 -0.67 0.0 0.25 21 2.42
02/08/2017 13.05 -0.04 -0.67 0.0 0.15 13 2.43
02/09/2017 13.02 -0.04 -0.67 0.0 0.04 5 2.44
02/10/2017 12.94 -0.04 -0.67 0.0 -0.01 1 2.46
02/11/2017 12.91 -0.01 -0.70 0.0 0.02 4 2.50
02/12/2017 12.97 0.02 -0.70 0.1 0.00 3 2.50
02/13/2017 13.04 0.02 -0.71 0.1 -0.04 1 2.47
02/14/2017 13.03 0.02 -0.70 0.1 -0.04 1 2.46
02/15/2017 13.02 0.02 -0.69 0.1 -0.03 1 2.45
02/16/2017 12.97 0.02 -0.67 0.1 -0.02 1 2.43
02/17/2017 12.95 0.02 -0.66 0.1 0.04 5 2.44
02/18/2017 12.96 0.03 -0.63 0.1 0.05 4 2.45
02/19/2017 13.01 0.02 -0.60 0.1 0.25 17 2.45
02/20/2017 13.07 0.02 -0.57 0.1 0.33 24 2.45
02/21/2017 13.10 0.02 -0.62 0.1 0.21 15 2.45
02/22/2017 13.01 0.02 -0.66 0.0 0.03 3 2.44
02/23/2017 13.10 0.02 -0.70 0.0 0.12 12 2.46
02/24/2017 12.95 0.02 -0.69 0.0 0.10 9 2.46
02/25/2017 13.03 0.02 -0.68 0.0 0.09 9 2.42
02/26/2017 12.97 0.01 -0.70 0.0 0.11 12 2.45
02/27/2017 13.03 0.02 -0.71 0.0 0.05 7 2.47
02/28/2017 12.98 0.02 -0.68 0.1 0.12 14 2.46
Average 0.0 11
Maximum 0.1 32
Minimum 0.0 1
Total Volume (AF) 2.2 589